Time;durP1;ratioP1;P1;durP2;ratioP2;P2;SDS_P1;SDS_P2;PMS_P1;PMS_P2;Temp;Humidity;BMP_temperature;BMP_pressure;BME280_temperature;BME280_humidity;BME280_pressure;Samples;Min_cycle;Max_cycle;Signal;HPM_P1;HPM_P2
2022/08/12 00:42:50;;;;;;;4.97;1.80;;;;;;;17.97;100.00;101874.69;5047391;28;20049;-82
2022/08/12 00:45:17;;;;;;;5.80;1.83;;;;;;;18.12;100.00;101879.22;5038070;28;20053;-82
2022/08/12 00:47:45;;;;;;;7.68;1.80;;;;;;;17.92;100.00;101876.72;5049002;28;20120;-82
2022/08/12 00:50:17;;;;;;;6.68;1.75;;;;;;;17.93;100.00;101868.69;5051675;28;20044;-82
2022/08/12 00:52:50;;;;;;;5.33;1.83;;;;;;;18.07;100.00;101873.28;5052683;28;20571;-82
2022/08/12 00:55:18;;;;;;;5.68;1.90;;;;;;;17.97;100.00;101856.16;5048432;28;20045;-82
2022/08/12 00:57:47;;;;;;;4.10;1.73;;;;;;;17.90;100.00;101860.94;5052763;28;20793;-82
2022/08/12 01:00:18;;;;;;;6.30;1.92;;;;;;;17.94;100.00;101885.47;5052201;28;20060;-83
2022/08/12 01:02:50;;;;;;;7.10;1.90;;;;;;;17.79;100.00;101881.75;5050988;28;20048;-84
2022/08/12 01:13:48;;;;;;;6.65;2.03;;;;;;;17.78;100.00;101896.78;5045071;28;20415;-82
2022/08/12 01:16:21;;;;;;;7.53;2.20;;;;;;;17.61;100.00;101879.06;5050709;28;20059;-83
2022/08/12 01:18:50;;;;;;;6.82;2.00;;;;;;;17.70;100.00;101901.59;5052625;28;20049;-83
2022/08/12 01:21:26;;;;;;;6.32;2.20;;;;;;;17.77;100.00;101902.16;5052404;28;20406;-83
2022/08/12 01:24:24;;;;;;;6.90;2.15;;;;;;;17.83;100.00;101904.53;5050575;28;20132;-83
2022/08/12 01:26:58;;;;;;;7.57;2.08;;;;;;;17.80;100.00;101891.41;5040903;28;20040;-83
2022/08/12 01:29:33;;;;;;;5.05;2.00;;;;;;;17.86;100.00;101904.38;5049335;28;20442;-82
2022/08/12 01:32:05;;;;;;;11.95;2.78;;;;;;;17.87;100.00;101911.41;5049013;28;20057;-83
2022/08/12 01:34:37;;;;;;;8.50;2.10;;;;;;;17.68;100.00;101889.38;5048725;28;20490;-82
2022/08/12 01:37:07;;;;;;;6.47;2.00;;;;;;;17.56;100.00;101873.13;5051441;28;20045;-82
2022/08/12 01:39:44;;;;;;;7.93;2.72;;;;;;;17.82;100.00;101901.00;5050895;28;20049;-82
2022/08/12 01:42:40;;;;;;;6.85;2.22;;;;;;;17.76;100.00;101913.69;5051551;28;20058;-83
2022/08/12 01:45:08;;;;;;;7.50;2.38;;;;;;;17.77;100.00;101907.47;5048094;28;20386;-82
2022/08/12 01:48:13;;;;;;;6.55;2.35;;;;;;;17.77;100.00;101915.41;5045091;28;20041;-82
2022/08/12 01:51:04;;;;;;;5.78;2.17;;;;;;;17.63;100.00;101913.44;5040212;28;20438;-83
2022/08/12 01:54:03;;;;;;;7.38;2.60;;;;;;;17.55;100.00;101919.09;5039591;28;20052;-83
2022/08/12 01:57:02;;;;;;;5.43;1.90;;;;;;;17.53;100.00;101918.31;5051010;28;20051;-83
2022/08/12 01:59:45;;;;;;;5.88;2.30;;;;;;;17.51;100.00;101920.19;5039052;28;20045;-83
2022/08/12 02:02:25;;;;;;;6.95;2.05;;;;;;;17.37;100.00;101904.09;5036716;28;20045;-82
2022/08/12 02:11:23;;;;;;;7.30;2.03;;;;;;;16.61;100.00;101890.78;5041186;28;20503;-82
2022/08/12 02:14:17;;;;;;;7.53;2.03;;;;;;;16.48;100.00;101906.34;5049809;28;20782;-82
2022/08/12 02:16:57;;;;;;;5.60;2.03;;;;;;;16.12;100.00;101904.38;5050339;28;20137;-82
2022/08/12 02:19:39;;;;;;;5.78;1.95;;;;;;;16.22;100.00;101897.75;5044829;28;20051;-82
2022/08/12 02:22:29;;;;;;;5.05;2.03;;;;;;;16.51;100.00;101898.28;5051015;28;20053;-83
2022/08/12 02:25:06;;;;;;;6.60;2.20;;;;;;;16.30;100.00;101902.72;5048976;28;20052;-83
2022/08/12 02:27:38;;;;;;;6.60;1.90;;;;;;;15.97;100.00;101900.59;5051900;28;20037;-82
2022/08/12 02:30:07;;;;;;;6.85;2.30;;;;;;;16.04;100.00;101857.16;5050452;28;20053;-82
2022/08/12 02:32:39;;;;;;;5.60;2.30;;;;;;;16.12;100.00;101876.16;5050312;28;20051;-82
2022/08/12 02:35:13;;;;;;;8.60;2.33;;;;;;;16.18;100.00;101879.47;5049495;28;20075;-83
2022/08/12 02:37:42;;;;;;;6.15;1.90;;;;;;;16.07;100.00;101862.28;5051589;28;20407;-83
2022/08/12 02:40:11;;;;;;;5.60;2.00;;;;;;;16.03;100.00;101897.69;5050916;28;20041;-83
2022/08/12 02:42:50;;;;;;;5.82;2.20;;;;;;;15.82;100.00;101883.59;5050513;28;20045;-83
2022/08/12 02:45:24;;;;;;;6.25;2.10;;;;;;;16.03;100.00;101876.53;5049865;28;20837;-83
2022/08/12 02:47:54;;;;;;;5.60;2.03;;;;;;;16.07;100.00;101875.47;5050182;28;20041;-82
2022/08/12 02:50:30;;;;;;;6.03;2.00;;;;;;;16.02;100.00;101893.31;5041091;28;20045;-83
2022/08/12 02:52:58;;;;;;;5.82;2.00;;;;;;;15.84;100.00;101876.44;5049418;28;20063;-82
2022/08/12 02:55:30;;;;;;;5.40;1.88;;;;;;;16.09;100.00;101893.91;5047700;28;20063;-83
2022/08/12 02:58:02;;;;;;;4.45;1.70;;;;;;;15.95;100.00;101876.00;5053156;28;20076;-82
2022/08/12 03:00:38;;;;;;;5.88;2.00;;;;;;;16.33;100.00;101884.09;5052606;28;20131;-83
2022/08/12 03:03:11;;;;;;;7.82;2.20;;;;;;;16.06;100.00;101870.25;5049604;28;20144;-83
2022/08/12 03:06:26;;;;;;;5.85;2.00;;;;;;;16.17;100.00;101877.75;5053078;28;20049;-83
2022/08/12 03:08:56;;;;;;;6.05;2.10;;;;;;;16.13;100.00;101867.31;5041201;28;20422;-83
2022/08/12 03:11:49;;;;;;;5.47;1.77;;;;;;;15.90;100.00;101876.22;5055413;28;20053;-83
2022/08/12 03:14:24;;;;;;;5.57;1.90;;;;;;;15.64;100.00;101876.41;5046873;28;20045;-83
2022/08/12 03:17:06;;;;;;;5.78;2.08;;;;;;;15.60;100.00;101867.75;5054342;28;20041;-84
2022/08/12 03:19:32;;;;;;;5.95;2.00;;;;;;;15.64;100.00;101873.75;5049905;28;20049;-83
2022/08/12 03:22:11;;;;;;;6.05;2.35;;;;;;;15.50;100.00;101885.72;5053924;28;20040;-82
2022/08/12 03:24:41;;;;;;;7.15;2.10;;;;;;;15.49;100.00;101878.75;5047942;28;20213;-83
2022/08/12 03:27:10;;;;;;;5.13;1.90;;;;;;;15.95;100.00;101883.91;5051424;28;20041;-82
2022/08/12 03:29:37;;;;;;;7.00;2.30;;;;;;;15.62;100.00;101875.59;5053245;28;20486;-82
2022/08/12 03:32:18;;;;;;;6.05;2.25;;;;;;;15.52;100.00;101896.22;5055282;28;20504;-82
2022/08/12 03:35:06;;;;;;;7.28;2.40;;;;;;;15.41;100.00;101895.81;5044947;28;20050;-82
2022/08/12 03:37:36;;;;;;;4.80;2.15;;;;;;;15.36;100.00;101888.91;5052648;28;20044;-81
2022/08/12 03:40:03;;;;;;;6.90;2.50;;;;;;;15.58;100.00;101890.69;5054608;28;20056;-82
2022/08/12 03:42:40;;;;;;;5.55;2.03;;;;;;;15.43;100.00;101889.53;5053754;28;20052;-83
2022/08/12 04:02:13;;;;;;;6.95;2.30;;;;;;;15.28;100.00;101895.41;5042585;28;20399;-83
2022/08/12 04:04:43;;;;;;;6.80;2.30;;;;;;;15.09;100.00;101890.84;5052808;28;20051;-83
2022/08/12 04:07:11;;;;;;;8.15;2.08;;;;;;;15.05;100.00;101881.34;5052478;28;20052;-83
2022/08/12 04:09:41;;;;;;;8.23;2.58;;;;;;;15.07;100.00;101891.81;5052330;28;20057;-83
2022/08/12 04:14:59;;;;;;;6.05;1.88;;;;;;;15.52;100.00;101881.22;5052971;28;20083;-83
2022/08/12 04:17:27;;;;;;;8.68;2.33;;;;;;;15.37;100.00;101887.16;5052874;28;20053;-83
2022/08/12 04:19:58;;;;;;;4.70;1.88;;;;;;;15.20;100.00;101877.22;5039534;28;20057;-83
2022/08/12 04:22:28;;;;;;;6.55;2.28;;;;;;;15.54;100.00;101884.66;5053764;28;20055;-83
2022/08/12 04:25:01;;;;;;;5.68;2.10;;;;;;;15.41;100.00;101888.72;5044543;28;20042;-83
2022/08/12 04:27:30;;;;;;;;;;;;;;;15.44;100.00;101891.25;5039545;28;20041;-83
2022/08/12 04:29:58;;;;;;;6.63;2.10;;;;;;;15.01;100.00;101879.72;5053168;28;19925;-83
2022/08/12 04:32:48;;;;;;;5.57;1.90;;;;;;;15.15;100.00;101885.31;5053200;28;20049;-83
2022/08/12 04:35:15;;;;;;;6.47;2.42;;;;;;;15.02;100.00;101878.81;5051071;28;20057;-83
2022/08/12 04:37:45;;;;;;;6.68;2.17;;;;;;;15.06;100.00;101880.41;5052065;28;20049;-83
2022/08/12 04:40:29;;;;;;;7.30;2.40;;;;;;;15.34;100.00;101871.44;5052747;28;20065;-83
2022/08/12 04:42:56;;;;;;;5.45;2.20;;;;;;;15.06;100.00;101875.13;5052335;28;20049;-83
2022/08/12 04:45:23;;;;;;;7.43;2.08;;;;;;;15.23;100.00;101863.94;5051623;28;20146;-83
2022/08/12 04:47:51;;;;;;;6.18;2.25;;;;;;;15.43;100.00;101862.28;5038455;28;20045;-82
2022/08/12 04:50:18;;;;;;;6.03;2.45;;;;;;;15.64;100.00;101877.25;5052166;28;20053;-82
2022/08/12 04:53:05;;;;;;;5.80;2.05;;;;;;;15.60;100.00;101864.22;5039095;28;20049;-83
2022/08/12 04:55:35;;;;;;;7.68;2.42;;;;;;;15.22;100.00;101864.84;5051074;28;20056;-82
2022/08/12 04:58:02;;;;;;;6.22;2.00;;;;;;;15.50;100.00;101861.97;5051518;28;20051;-83
2022/08/12 05:00:29;;;;;;;7.43;2.53;;;;;;;15.26;100.00;101878.78;5053694;28;20063;-83
2022/08/12 05:02:55;;;;;;;7.43;2.33;;;;;;;15.14;100.00;101874.84;5051798;28;20045;-83
2022/08/12 05:05:23;;;;;;;7.22;2.67;;;;;;;15.29;100.00;101883.94;5051479;28;20060;-83
2022/08/12 05:07:51;;;;;;;6.28;2.40;;;;;;;15.36;100.00;101888.91;5051985;28;20472;-82
2022/08/12 05:10:20;;;;;;;6.88;2.35;;;;;;;15.74;100.00;101877.72;5053401;28;20057;-82
2022/08/12 05:13:13;;;;;;;8.05;2.40;;;;;;;15.68;100.00;101880.63;5051911;28;20053;-83
2022/08/12 05:15:43;;;;;;;7.60;2.65;;;;;;;15.12;100.00;101840.63;5045844;28;20053;-83
2022/08/12 05:18:38;;;;;;;5.63;2.03;;;;;;;15.65;100.00;101872.81;5052131;28;20052;-82
2022/08/12 05:21:07;;;;;;;6.68;2.38;;;;;;;15.67;100.00;101853.38;5051754;28;20049;-82
2022/08/12 05:23:39;;;;;;;5.50;1.85;;;;;;;15.96;100.00;101863.69;5051278;28;20088;-83
2022/08/12 05:26:06;;;;;;;6.25;2.20;;;;;;;15.80;100.00;101858.19;5045755;28;20049;-82
2022/08/12 05:28:33;;;;;;;5.30;1.95;;;;;;;15.85;100.00;101872.91;5050503;28;20053;-82
2022/08/12 05:31:02;;;;;;;6.18;2.17;;;;;;;15.86;100.00;101866.69;5050438;28;20067;-82
2022/08/12 05:33:36;;;;;;;7.15;2.38;;;;;;;15.61;100.00;101853.59;5049768;28;20053;-83
2022/08/12 05:36:06;;;;;;;10.07;2.33;;;;;;;15.68;100.00;101863.00;5041407;28;20120;-83
2022/08/12 05:41:33;;;;;;;7.95;2.72;;;;;;;15.72;100.00;101859.31;5045244;28;20065;-83
2022/08/12 05:44:11;;;;;;;6.22;2.30;;;;;;;16.03;100.00;101857.22;5040708;28;20381;-82
2022/08/12 05:46:38;;;;;;;6.82;2.35;;;;;;;15.77;100.00;101851.22;5043859;28;20055;-83
2022/08/12 05:49:05;;;;;;;7.80;3.20;;;;;;;15.77;100.00;101872.34;5043213;28;20045;-82
2022/08/12 05:51:35;;;;;;;7.00;2.38;;;;;;;15.74;100.00;101846.94;5044686;28;20046;-82
2022/08/12 05:54:07;;;;;;;7.40;2.60;;;;;;;15.92;100.00;101820.69;5049503;28;20403;-82
2022/08/12 05:56:35;;;;;;;6.68;2.42;;;;;;;16.20;100.00;101861.75;5044743;28;20045;-82
2022/08/12 05:59:06;;;;;;;6.00;2.00;;;;;;;16.02;100.00;101853.69;5043033;28;20041;-82
2022/08/12 06:01:34;;;;;;;11.60;2.92;;;;;;;16.07;100.00;101858.78;5042180;28;20050;-82
2022/08/12 06:04:21;;;;;;;7.72;2.28;;;;;;;15.98;100.00;101822.19;5039412;28;20045;-83
2022/08/12 06:06:51;;;;;;;5.15;1.98;;;;;;;16.41;100.00;101849.38;5043270;28;20049;-83
2022/08/12 06:09:21;;;;;;;7.05;1.92;;;;;;;16.67;100.00;101864.94;5046287;28;20045;-83
2022/08/12 06:11:49;;;;;;;6.75;2.40;;;;;;;16.57;100.00;101828.41;5047106;28;20044;-82
2022/08/12 06:14:35;;;;;;;6.70;2.30;;;;;;;16.42;100.00;101832.59;5042314;28;20146;-82
2022/08/12 06:17:04;;;;;;;7.05;2.53;;;;;;;16.57;100.00;101845.13;5043032;28;20128;-81
2022/08/12 06:19:31;;;;;;;6.00;2.47;;;;;;;16.35;100.00;101837.31;5044031;28;20055;-82
2022/08/12 06:22:18;;;;;;;7.45;2.13;;;;;;;16.81;100.00;101877.53;5042981;28;20049;-82
2022/08/12 06:24:47;;;;;;;9.15;2.35;;;;;;;17.07;100.00;101864.94;5044185;28;20138;-83
2022/08/12 06:27:17;;;;;;;7.68;2.42;;;;;;;18.03;100.00;101845.25;5046726;28;20471;-83
2022/08/12 06:29:44;;;;;;;6.15;2.25;;;;;;;18.28;100.00;101859.88;5044383;28;20048;-82
2022/08/12 06:32:31;;;;;;;6.55;2.20;;;;;;;18.84;100.00;101868.41;5045870;28;20468;-82
2022/08/12 06:35:00;;;;;;;6.68;2.10;;;;;;;19.33;100.00;101825.88;5041678;28;20050;-82
2022/08/12 06:37:51;;;;;;;6.10;2.13;;;;;;;20.43;100.00;101829.13;5050096;28;20045;-83
2022/08/12 06:43:10;;;;;;;11.45;2.20;;;;;;;21.33;100.00;101828.78;5050587;28;20099;-83
2022/08/12 06:45:44;;;;;;;9.60;2.78;;;;;;;21.76;100.00;101853.47;5037287;28;20041;-83
2022/08/12 06:48:12;;;;;;;6.95;2.40;;;;;;;21.70;100.00;101855.66;5039410;28;20045;-83
2022/08/12 06:50:41;;;;;;;10.10;3.95;;;;;;;21.24;100.00;101888.81;5048166;28;20049;-83
2022/08/12 06:53:09;;;;;;;6.68;2.80;;;;;;;21.28;100.00;101858.34;5044176;28;20053;-83
2022/08/12 06:55:38;;;;;;;7.43;2.70;;;;;;;21.88;100.00;101856.25;5042519;28;20147;-82
2022/08/12 06:58:24;;;;;;;6.63;2.80;;;;;;;21.68;100.00;101833.59;5042525;28;20141;-83
2022/08/12 07:00:51;;;;;;;4.95;1.80;;;;;;;22.24;100.00;101858.22;5036522;28;20140;-83
2022/08/12 07:03:24;;;;;;;8.15;2.17;;;;;;;22.93;100.00;101865.84;5043687;28;20065;-83
2022/08/12 07:05:51;;;;;;;7.45;2.65;;;;;;;22.23;100.00;101876.97;5030338;28;20140;-83
2022/08/12 07:08:18;;;;;;;11.60;2.70;;;;;;;23.15;100.00;101886.53;5036024;28;20060;-83
2022/08/12 07:10:57;;;;;;;6.00;1.90;;;;;;;23.42;100.00;101894.34;5045965;28;20053;-83
2022/08/12 07:13:51;;;;;;;3.92;1.27;;;;;;;22.98;100.00;101889.53;5043032;28;20045;-83
2022/08/12 07:16:55;;;;;;;5.45;1.38;;;;;;;23.52;100.00;101873.13;5039326;28;20084;-84
2022/08/12 07:19:22;;;;;;;4.47;1.33;;;;;;;23.30;100.00;101858.69;5046872;28;20463;-83
2022/08/12 07:21:50;;;;;;;3.85;1.20;;;;;;;23.65;100.00;101860.53;5049749;28;20101;-83
2022/08/12 07:24:27;;;;;;;8.25;1.48;;;;;;;24.13;99.66;101867.63;5038773;28;20413;-83
2022/08/12 07:26:54;;;;;;;4.15;1.20;;;;;;;24.35;100.00;101896.28;5035768;28;20131;-83
2022/08/12 07:29:21;;;;;;;3.15;1.13;;;;;;;24.19;100.00;101893.94;5049547;28;20045;-83
2022/08/12 07:31:48;;;;;;;5.90;1.08;;;;;;;24.43;100.00;101872.44;5048403;28;20049;-83
2022/08/12 07:34:15;;;;;;;21.52;3.15;;;;;;;24.63;100.00;101895.00;5043994;28;20399;-82
2022/08/12 07:36:44;;;;;;;4.05;1.20;;;;;;;24.16;98.97;101877.25;5049437;28;20597;-83
2022/08/12 07:39:12;;;;;;;3.83;1.02;;;;;;;23.60;100.00;101908.19;5041482;28;20045;-83
2022/08/12 07:41:39;;;;;;;2.88;0.90;;;;;;;23.58;100.00;101883.34;5051628;28;20130;-84
2022/08/12 07:44:07;;;;;;;2.58;0.80;;;;;;;24.12;100.00;101873.13;5044327;28;20067;-85
2022/08/12 07:46:38;;;;;;;2.47;0.50;;;;;;;24.26;100.00;101863.06;5048507;28;20048;-84
2022/08/12 07:49:14;;;;;;;3.13;0.70;;;;;;;24.43;100.00;101901.91;5050705;28;20408;-85
2022/08/12 07:51:43;;;;;;;1.67;0.65;;;;;;;24.06;100.00;101877.97;5044395;28;20570;-85
2022/08/12 07:54:11;;;;;;;1.05;0.57;;;;;;;24.63;99.33;101881.59;5055223;28;20055;-83
2022/08/12 07:56:40;;;;;;;3.30;0.80;;;;;;;24.40;98.88;101895.91;5033695;28;20690;-85
2022/08/12 07:59:07;;;;;;;1.60;0.70;;;;;;;24.16;99.75;101858.53;5051771;28;20428;-82
2022/08/12 08:01:36;;;;;;;1.52;0.57;;;;;;;24.51;95.72;101906.63;5040304;28;20049;-83
2022/08/12 08:06:51;;;;;;;4.13;0.90;;;;;;;24.57;100.00;101889.25;5047001;28;20052;-82
2022/08/12 08:09:20;;;;;;;3.17;0.70;;;;;;;23.83;98.99;101873.53;5045747;28;20047;-83
2022/08/12 08:14:57;;;;;;;1.13;0.50;;;;;;;24.15;100.00;101916.56;4948198;29;20098;-83
2022/08/12 08:17:27;;;;;;;1.95;0.60;;;;;;;24.16;100.00;101894.16;4951487;29;20047;-83
2022/08/12 08:19:54;;;;;;;2.55;0.70;;;;;;;24.50;98.38;101907.59;4990343;28;20136;-83
2022/08/12 08:22:29;;;;;;;2.20;0.70;;;;;;;24.28;97.27;101908.44;5050344;28;20052;-82
2022/08/12 08:25:08;;;;;;;2.60;0.80;;;;;;;24.35;97.04;101871.34;5042217;28;20045;-83
2022/08/12 08:27:55;;;;;;;5.28;0.88;;;;;;;24.37;97.29;101888.13;5042535;28;20041;-83
2022/08/12 08:30:22;;;;;;;2.78;0.70;;;;;;;24.93;92.48;101906.03;5047826;28;20072;-83
2022/08/12 08:32:49;;;;;;;2.78;0.68;;;;;;;24.69;89.12;101882.94;5045387;28;20380;-83
2022/08/12 08:35:16;;;;;;;1.67;0.65;;;;;;;24.58;93.60;101904.38;5041931;28;20061;-83
2022/08/12 08:37:45;;;;;;;1.42;0.55;;;;;;;24.32;94.33;101879.59;5035940;28;20041;-82
2022/08/12 08:43:02;;;;;;;4.80;0.95;;;;;;;24.01;96.17;101884.63;5038722;28;20045;-82
2022/08/12 08:45:30;;;;;;;3.90;1.00;;;;;;;24.06;97.33;101912.75;5037327;28;20108;-82
2022/08/12 08:47:58;;;;;;;1.83;0.70;;;;;;;23.90;100.00;101876.59;5041048;28;20098;-81
2022/08/12 08:50:26;;;;;;;1.75;0.70;;;;;;;24.60;100.00;101911.28;5047772;28;20072;-81
2022/08/12 08:52:53;;;;;;;1.70;0.70;;;;;;;24.64;93.30;101899.34;5046387;28;20375;-82
2022/08/12 08:55:20;;;;;;;1.75;0.82;;;;;;;24.43;96.82;101877.81;5044217;28;20049;-81
2022/08/12 08:58:07;;;;;;;2.08;0.80;;;;;;;24.67;92.92;101910.81;5035614;28;20049;-81
2022/08/12 09:00:37;;;;;;;4.70;1.15;;;;;;;24.17;95.80;101844.16;5035452;28;20505;-81
2022/08/12 09:03:05;;;;;;;4.03;0.90;;;;;;;24.60;91.20;101908.63;5035962;28;20049;-81
2022/08/12 09:05:53;;;;;;;1.80;0.77;;;;;;;24.11;98.22;101882.13;5035650;28;20056;-81
2022/08/12 09:08:28;;;;;;;3.65;1.00;;;;;;;24.05;97.55;101900.34;5036384;28;20055;-81
2022/08/12 09:13:26;;;;;;;3.05;0.82;;;;;;;23.96;97.44;101878.81;5044904;28;20046;-81
2022/08/12 09:14:06;;;;;;;3.10;0.82;;;;;;;23.92;99.94;101901.38;5038472;28;20399;-81
2022/08/12 09:16:39;;;;;;;1.75;0.80;;;;;;;23.60;100.00;101901.97;5050648;28;20449;-81
2022/08/12 09:19:12;;;;;;;3.42;1.05;;;;;;;23.44;100.00;101881.75;5034362;28;20084;-81
2022/08/12 09:21:53;;;;;;;3.42;1.00;;;;;;;23.32;100.00;101879.97;5038600;28;20108;-81
2022/08/12 09:24:21;;;;;;;1.98;0.93;;;;;;;23.46;100.00;101884.25;5038783;28;20049;-81
2022/08/12 09:26:48;;;;;;;2.47;0.85;;;;;;;23.62;100.00;101918.72;5040774;28;20052;-81
2022/08/12 09:29:20;;;;;;;3.00;0.88;;;;;;;23.13;100.00;101865.28;5049006;28;20488;-82
2022/08/12 09:32:08;;;;;;;3.35;1.00;;;;;;;22.98;100.00;101858.34;5043512;28;20045;-81
2022/08/12 09:34:55;;;;;;;6.32;1.17;;;;;;;22.44;100.00;101862.19;5038718;28;20052;-84
2022/08/12 09:37:25;;;;;;;5.47;1.55;;;;;;;22.76;100.00;101867.06;5045494;28;20464;-82
2022/08/12 09:39:52;;;;;;;2.53;1.00;;;;;;;23.13;100.00;101904.50;5043946;28;20468;-82
2022/08/12 09:45:47;;;;;;;3.13;1.00;;;;;;;23.80;100.00;101898.69;5047190;28;20120;-82
2022/08/12 09:48:34;;;;;;;2.05;0.85;;;;;;;23.95;100.00;101888.63;5033157;28;20045;-82
2022/08/12 09:51:07;;;;;;;4.97;0.93;;;;;;;23.82;100.00;101861.97;5039742;28;20137;-82
2022/08/12 09:53:49;;;;;;;2.97;0.85;;;;;;;23.58;100.00;101891.38;5034100;28;20057;-82
2022/08/12 09:56:36;;;;;;;3.67;1.00;;;;;;;23.43;100.00;101823.06;5041875;28;20048;-82
2022/08/12 09:59:22;;;;;;;4.13;1.15;;;;;;;23.63;100.00;101849.13;5046548;28;20097;-82
2022/08/12 10:02:11;;;;;;;3.25;1.02;;;;;;;23.39;100.00;101853.63;5051667;28;20049;-82
2022/08/12 10:04:58;;;;;;;2.97;1.13;;;;;;;23.37;100.00;101863.56;5052274;28;20509;-82
2022/08/12 10:07:25;;;;;;;4.07;1.00;;;;;;;23.08;100.00;101861.25;5048726;28;20045;-82
2022/08/12 10:10:06;;;;;;;3.10;0.90;;;;;;;23.53;100.00;101877.50;5051899;28;20048;-82
2022/08/12 10:15:43;;;;;;;3.30;0.80;;;;;;;23.33;100.00;101883.50;5041504;28;20053;-82
2022/08/12 10:18:31;;;;;;;4.38;1.20;;;;;;;23.45;100.00;101887.94;5051583;28;20133;-82
2022/08/12 10:21:05;;;;;;;3.35;1.00;;;;;;;23.27;100.00;101845.56;5053207;28;20384;-82
2022/08/12 10:23:33;;;;;;;3.63;1.15;;;;;;;23.28;100.00;101825.91;5050983;28;20094;-82
2022/08/12 10:32:22;;;;;;;3.70;1.30;;;;;;;22.92;100.00;101837.44;5052460;28;20061;-83
2022/08/12 10:35:09;;;;;;;3.67;1.13;;;;;;;23.24;100.00;101848.44;5052726;28;20068;-82
2022/08/12 10:37:37;;;;;;;5.07;1.90;;;;;;;22.93;100.00;101831.97;5052228;28;20045;-82
2022/08/12 10:40:24;;;;;;;4.93;1.80;;;;;;;22.92;100.00;101832.94;5050739;28;20048;-82
2022/08/12 10:45:47;;;;;;;6.22;1.90;;;;;;;23.16;100.00;101852.66;5052653;28;20057;-81
2022/08/12 10:48:19;;;;;;;6.43;1.80;;;;;;;23.20;100.00;101854.16;5050890;28;20060;-81
2022/08/12 10:50:54;;;;;;;5.93;1.67;;;;;;;22.67;100.00;101825.00;5052676;28;20052;-82
2022/08/12 10:53:33;;;;;;;4.85;1.48;;;;;;;22.63;100.00;101869.75;5040993;28;20071;-81
2022/08/12 10:56:15;;;;;;;7.10;1.80;;;;;;;23.34;100.00;101869.13;5049657;28;20141;-82
2022/08/12 10:58:44;;;;;;;5.43;1.60;;;;;;;22.72;100.00;101844.22;5051056;28;20051;-82
2022/08/12 11:01:16;;;;;;;6.45;1.73;;;;;;;22.82;100.00;101865.75;5038494;28;20387;-82
2022/08/12 11:04:04;;;;;;;6.97;2.03;;;;;;;22.47;100.00;101850.41;5051147;28;20052;-81
2022/08/12 11:06:52;;;;;;;7.88;1.90;;;;;;;22.88;100.00;101870.66;5038406;28;20048;-82
2022/08/12 11:09:40;;;;;;;7.50;2.00;;;;;;;22.68;100.00;101829.34;5043004;28;20049;-82
2022/08/12 11:12:28;;;;;;;8.13;1.80;;;;;;;22.16;100.00;101801.84;5040412;28;20053;-82
2022/08/12 11:15:16;;;;;;;7.80;1.98;;;;;;;23.03;100.00;101850.84;5037409;28;20392;-82
2022/08/12 11:17:50;;;;;;;4.68;1.65;;;;;;;22.25;100.00;101857.22;5052660;28;20049;-82
2022/08/12 11:20:21;;;;;;;7.90;1.92;;;;;;;22.05;100.00;101823.94;5054940;28;20040;-82
2022/08/12 11:22:59;;;;;;;5.75;1.80;;;;;;;22.22;100.00;101813.91;5045693;28;20633;-82
2022/08/12 11:25:47;;;;;;;6.18;1.80;;;;;;;22.08;100.00;101818.41;5055098;28;20049;-82
2022/08/12 11:28:23;;;;;;;4.85;1.70;;;;;;;22.29;100.00;101850.78;5055731;28;20052;-83
2022/08/12 11:31:00;;;;;;;8.02;1.80;;;;;;;22.12;100.00;101824.38;5042442;28;20037;-82
2022/08/12 11:33:27;;;;;;;6.20;1.83;;;;;;;22.21;100.00;101820.22;5055780;28;20125;-83
2022/08/12 11:36:14;;;;;;;7.90;2.10;;;;;;;21.93;100.00;101819.47;5044249;28;20468;-82
2022/08/12 11:38:41;;;;;;;6.85;1.88;;;;;;;22.02;100.00;101833.97;5051765;28;20049;-82
2022/08/12 11:41:08;;;;;;;6.65;2.28;;;;;;;21.54;100.00;101808.72;5054517;28;20539;-82
2022/08/12 11:43:35;;;;;;;6.47;1.65;;;;;;;21.34;100.00;101794.03;5054962;28;20167;-82
2022/08/12 11:46:22;;;;;;;8.70;2.05;;;;;;;21.81;100.00;101831.81;5055538;28;20053;-82
2022/08/12 11:48:48;;;;;;;6.47;2.10;;;;;;;21.68;100.00;101813.13;5055619;28;20467;-82
2022/08/12 11:51:18;;;;;;;6.95;2.10;;;;;;;21.89;100.00;101836.63;5054562;28;20060;-82
2022/08/12 11:53:45;;;;;;;6.55;2.10;;;;;;;21.29;100.00;101800.63;5048947;28;20061;-82
2022/08/12 11:56:24;;;;;;;6.50;1.83;;;;;;;20.96;100.00;101799.22;5040928;28;20423;-82
2022/08/12 11:59:04;;;;;;;8.68;2.70;;;;;;;21.17;100.00;101810.28;5053619;28;20049;-82
2022/08/12 12:01:51;;;;;;;7.18;1.80;;;;;;;21.74;100.00;101812.72;5055346;28;20041;-82
2022/08/12 12:04:30;;;;;;;7.55;2.40;;;;;;;21.42;100.00;101774.88;5055538;28;20053;-82
2022/08/12 12:06:57;;;;;;;8.77;2.22;;;;;;;21.78;100.00;101819.53;5055311;28;20475;-82
2022/08/12 12:09:36;;;;;;;6.50;2.28;;;;;;;21.23;100.00;101810.75;5055056;28;20090;-82
2022/08/12 12:12:22;;;;;;;5.28;1.88;;;;;;;21.27;100.00;101807.88;5042269;28;20052;-82
2022/08/12 12:14:50;;;;;;;7.05;2.45;;;;;;;21.11;100.00;101787.56;5049745;28;20064;-82
2022/08/12 12:17:25;;;;;;;9.50;2.90;;;;;;;21.22;100.00;101834.81;5047224;28;20078;-82
2022/08/12 12:20:09;;;;;;;5.75;2.00;;;;;;;21.33;100.00;101810.97;5049009;28;20099;-82
2022/08/12 12:22:39;;;;;;;6.38;2.22;;;;;;;21.35;100.00;101755.78;5054950;28;20136;-81
2022/08/12 12:25:10;;;;;;;9.15;3.05;;;;;;;21.32;100.00;101768.44;5055077;28;20061;-81
2022/08/12 12:27:50;;;;;;;8.10;2.45;;;;;;;21.09;100.00;101816.13;5053229;28;20076;-81
2022/08/12 12:30:33;;;;;;;5.70;1.98;;;;;;;21.22;100.00;101824.16;5050655;28;20077;-81
2022/08/12 12:33:00;;;;;;;8.15;2.30;;;;;;;20.86;100.00;101770.53;5045020;28;20096;-81
2022/08/12 12:35:27;;;;;;;8.43;2.33;;;;;;;21.35;100.00;101833.03;5053473;28;20049;-81
2022/08/12 12:38:15;;;;;;;7.57;1.90;;;;;;;20.87;100.00;101795.34;5055122;28;20360;-81
2022/08/12 12:40:44;;;;;;;8.00;2.80;;;;;;;20.99;100.00;101804.34;5053302;28;20045;-81
2022/08/12 12:43:16;;;;;;;7.28;2.55;;;;;;;20.69;100.00;101767.25;5049608;28;20061;-81
2022/08/12 12:45:55;;;;;;;6.00;2.25;;;;;;;21.10;100.00;101775.19;5054575;28;20053;-81
2022/08/12 12:48:22;;;;;;;8.00;2.95;;;;;;;20.53;100.00;101772.66;5054981;28;20045;-81
2022/08/12 12:53:42;;;;;;;8.13;3.20;;;;;;;20.53;100.00;101784.16;5054729;28;20055;-81
2022/08/12 12:56:30;;;;;;;7.47;2.70;;;;;;;20.72;100.00;101806.97;5041359;28;20053;-81
2022/08/12 12:59:02;;;;;;;8.73;3.13;;;;;;;20.64;100.00;101799.47;5047137;28;20111;-81
2022/08/12 13:01:30;;;;;;;7.32;2.50;;;;;;;20.58;100.00;101799.84;5049692;28;20053;-81
2022/08/12 13:04:06;;;;;;;7.45;2.72;;;;;;;20.80;100.00;101778.91;5053618;28;20475;-81
2022/08/12 13:06:40;;;;;;;7.10;2.55;;;;;;;20.85;100.00;101779.47;5054737;28;20407;-81
2022/08/12 13:09:11;;;;;;;8.88;2.80;;;;;;;21.02;100.00;101796.16;5054585;28;20103;-82
2022/08/12 13:11:39;;;;;;;7.90;2.80;;;;;;;21.13;100.00;101798.97;5054247;28;20049;-81
2022/08/12 13:14:12;;;;;;;8.30;2.95;;;;;;;20.55;100.00;101784.91;5052974;28;20053;-81
2022/08/12 13:16:55;;;;;;;6.85;2.10;;;;;;;20.21;100.00;101770.22;5052569;28;20051;-81
2022/08/12 13:19:24;;;;;;;9.50;2.90;;;;;;;20.21;100.00;101738.31;5054539;28;20438;-81
2022/08/12 13:22:16;;;;;;;8.43;2.53;;;;;;;20.64;100.00;101763.06;5052959;28;20041;-81
2022/08/12 13:24:51;;;;;;;5.68;2.20;;;;;;;20.98;100.00;101806.16;5053539;28;20048;-81
2022/08/12 13:27:40;;;;;;;8.02;3.15;;;;;;;20.53;100.00;101799.28;5054116;28;20093;-81
2022/08/12 13:30:14;;;;;;;7.32;2.33;;;;;;;20.26;100.00;101773.44;5052834;28;20041;-82
2022/08/12 13:32:45;;;;;;;9.48;2.53;;;;;;;20.30;100.00;101751.88;5052897;28;20356;-81
2022/08/12 13:35:28;;;;;;;7.30;2.90;;;;;;;20.56;100.00;101804.41;5052488;28;20088;-81
2022/08/12 13:38:15;;;;;;;7.57;2.40;;;;;;;20.48;100.00;101791.56;5052834;28;20511;-81
2022/08/12 13:41:02;;;;;;;7.47;2.47;;;;;;;20.33;100.00;101777.44;5051844;28;20554;-82